sensor_id;sensor_type;location;lat;lon;timestamp;pressure;altitude;pressure_sealevel;temperature;humidity
5053;BME280;2545;50.892;5.740;2023-06-01T00:00:36;55949.34;;;-142.21;67.33
5053;BME280;2545;50.892;5.740;2023-06-01T00:03:03;55984.63;;;-142.21;67.41
5053;BME280;2545;50.892;5.740;2023-06-01T00:05:29;55941.50;;;-142.21;67.99
5053;BME280;2545;50.892;5.740;2023-06-01T00:07:54;55949.34;;;-142.21;68.76
5053;BME280;2545;50.892;5.740;2023-06-01T00:10:19;55941.50;;;-142.21;68.44
5053;BME280;2545;50.892;5.740;2023-06-01T00:12:45;55949.34;;;-142.21;69.05
5053;BME280;2545;50.892;5.740;2023-06-01T00:15:10;55935.63;;;-142.21;69.12
5053;BME280;2545;50.892;5.740;2023-06-01T00:17:36;55929.75;;;-142.21;69.82
5053;BME280;2545;50.892;5.740;2023-06-01T00:20:01;55919.94;;;-142.21;69.79
5053;BME280;2545;50.892;5.740;2023-06-01T00:22:31;55955.22;;;-142.21;70.59
5053;BME280;2545;50.892;5.740;2023-06-01T00:25:00;55919.94;;;-142.21;71.24
5053;BME280;2545;50.892;5.740;2023-06-01T00:27:25;55912.09;;;-142.21;72.01
5053;BME280;2545;50.892;5.740;2023-06-01T00:29:50;55919.94;;;-142.21;71.87
5053;BME280;2545;50.892;5.740;2023-06-01T00:32:16;55925.81;;;-142.21;72.33
5053;BME280;2545;50.892;5.740;2023-06-01T00:34:41;55957.19;;;-142.21;73.27
5053;BME280;2545;50.892;5.740;2023-06-01T00:37:06;55935.63;;;-142.21;73.98
5053;BME280;2545;50.892;5.740;2023-06-01T00:39:32;55923.84;;;-142.21;74.11
5053;BME280;2545;50.892;5.740;2023-06-01T00:41:57;55935.63;;;-142.21;74.29
5053;BME280;2545;50.892;5.740;2023-06-01T00:44:22;55953.25;;;-142.21;74.54
5053;BME280;2545;50.892;5.740;2023-06-01T00:46:49;55916.00;;;-142.21;73.95
5053;BME280;2545;50.892;5.740;2023-06-01T00:49:15;55902.28;;;-142.21;73.70
5053;BME280;2545;50.892;5.740;2023-06-01T00:51:40;55955.22;;;-142.21;74.53
5053;BME280;2545;50.892;5.740;2023-06-01T00:54:06;55965.03;;;-142.21;76.01
5053;BME280;2545;50.892;5.740;2023-06-01T00:56:31;55961.09;;;-142.21;76.66
5053;BME280;2545;50.892;5.740;2023-06-01T00:58:58;55970.91;;;-142.21;77.02
5053;BME280;2545;50.892;5.740;2023-06-01T01:01:24;55941.50;;;-142.21;77.00
5053;BME280;2545;50.892;5.740;2023-06-01T01:03:51;55941.50;;;-142.21;77.08
5053;BME280;2545;50.892;5.740;2023-06-01T01:06:31;55978.75;;;-142.21;76.80
5053;BME280;2545;50.892;5.740;2023-06-01T01:09:22;55923.84;;;-142.21;77.61
5053;BME280;2545;50.892;5.740;2023-06-01T01:12:00;55945.41;;;-142.21;77.86
5053;BME280;2545;50.892;5.740;2023-06-01T01:14:43;55945.41;;;-142.21;78.42
5053;BME280;2545;50.892;5.740;2023-06-01T01:17:15;55935.63;;;-142.21;78.93
5053;BME280;2545;50.892;5.740;2023-06-01T01:30:59;55933.66;;;-142.21;81.99
5053;BME280;2545;50.892;5.740;2023-06-01T01:33:27;55937.56;;;-142.21;82.63
5053;BME280;2545;50.892;5.740;2023-06-01T01:35:54;55968.94;;;-142.21;82.45
5053;BME280;2545;50.892;5.740;2023-06-01T01:38:20;55959.16;;;-142.21;83.72
5053;BME280;2545;50.892;5.740;2023-06-01T01:40:45;55959.16;;;-142.21;83.32
5053;BME280;2545;50.892;5.740;2023-06-01T01:43:11;55974.84;;;-142.21;83.73
5053;BME280;2545;50.892;5.740;2023-06-01T01:45:37;55925.81;;;-142.21;84.16
5053;BME280;2545;50.892;5.740;2023-06-01T01:48:13;55949.34;;;-142.21;84.89
5053;BME280;2545;50.892;5.740;2023-06-01T01:50:58;55970.91;;;-142.21;84.73
5053;BME280;2545;50.892;5.740;2023-06-01T01:53:26;55951.31;;;-142.21;85.16
5053;BME280;2545;50.892;5.740;2023-06-01T01:55:53;55916.00;;;-142.21;84.98
5053;BME280;2545;50.892;5.740;2023-06-01T01:58:20;55939.53;;;-142.21;84.92
5053;BME280;2545;50.892;5.740;2023-06-01T02:00:46;55963.06;;;-142.21;84.81
5053;BME280;2545;50.892;5.740;2023-06-01T02:03:16;55939.53;;;-142.21;85.51
5053;BME280;2545;50.892;5.740;2023-06-01T02:05:42;55947.38;;;-142.21;85.71
5053;BME280;2545;50.892;5.740;2023-06-01T02:08:08;55951.31;;;-142.21;85.85
5053;BME280;2545;50.892;5.740;2023-06-01T02:10:33;55955.22;;;-142.21;85.32
5053;BME280;2545;50.892;5.740;2023-06-01T02:12:58;55986.59;;;-142.21;85.76
5053;BME280;2545;50.892;5.740;2023-06-01T02:15:24;55959.16;;;-142.21;86.60
5053;BME280;2545;50.892;5.740;2023-06-01T02:17:49;55927.78;;;-142.21;86.86
5053;BME280;2545;50.892;5.740;2023-06-01T02:20:15;55923.84;;;-142.21;87.25
5053;BME280;2545;50.892;5.740;2023-06-01T02:22:40;55951.31;;;-142.21;88.50
5053;BME280;2545;50.892;5.740;2023-06-01T02:25:06;55968.94;;;-142.21;88.89
5053;BME280;2545;50.892;5.740;2023-06-01T02:27:31;55970.91;;;-142.21;88.75
5053;BME280;2545;50.892;5.740;2023-06-01T02:29:56;55947.38;;;-142.21;89.60
5053;BME280;2545;50.892;5.740;2023-06-01T02:32:22;55998.38;;;-142.21;90.03
5053;BME280;2545;50.892;5.740;2023-06-01T02:34:47;55974.84;;;-142.21;90.66
5053;BME280;2545;50.892;5.740;2023-06-01T02:37:12;55968.94;;;-142.21;90.97
5053;BME280;2545;50.892;5.740;2023-06-01T02:39:38;55935.63;;;-142.21;91.26
5053;BME280;2545;50.892;5.740;2023-06-01T02:42:03;55978.75;;;-142.21;92.22
5053;BME280;2545;50.892;5.740;2023-06-01T02:44:29;55953.25;;;-142.21;92.25
5053;BME280;2545;50.892;5.740;2023-06-01T02:46:54;55935.63;;;-142.21;93.49
5053;BME280;2545;50.892;5.740;2023-06-01T02:49:19;55992.47;;;-142.21;94.94
5053;BME280;2545;50.892;5.740;2023-06-01T02:51:45;55951.31;;;-142.21;95.42
5053;BME280;2545;50.892;5.740;2023-06-01T02:54:10;55933.66;;;-142.21;94.97
5053;BME280;2545;50.892;5.740;2023-06-01T02:56:35;55965.03;;;-142.21;95.74
5053;BME280;2545;50.892;5.740;2023-06-01T02:59:01;55935.63;;;-142.21;96.58
5053;BME280;2545;50.892;5.740;2023-06-01T03:01:28;55974.84;;;-142.21;97.74
5053;BME280;2545;50.892;5.740;2023-06-01T03:03:53;55998.38;;;-142.21;97.36
5053;BME280;2545;50.892;5.740;2023-06-01T03:06:20;55931.69;;;-142.21;98.13
5053;BME280;2545;50.892;5.740;2023-06-01T03:08:48;55951.31;;;-142.21;98.64
5053;BME280;2545;50.892;5.740;2023-06-01T03:11:14;55957.19;;;-142.21;99.11
5053;BME280;2545;50.892;5.740;2023-06-01T03:13:39;55957.19;;;-142.21;99.56
5053;BME280;2545;50.892;5.740;2023-06-01T03:16:04;55988.56;;;-142.21;99.67
5053;BME280;2545;50.892;5.740;2023-06-01T03:18:29;55965.03;;;-142.21;99.16
5053;BME280;2545;50.892;5.740;2023-06-01T03:20:55;55951.31;;;-142.21;99.21
5053;BME280;2545;50.892;5.740;2023-06-01T03:23:21;56014.06;;;-142.21;100.00
5053;BME280;2545;50.892;5.740;2023-06-01T03:25:46;56000.31;;;-142.21;100.00
5053;BME280;2545;50.892;5.740;2023-06-01T03:28:11;55994.44;;;-142.21;100.00
5053;BME280;2545;50.892;5.740;2023-06-01T03:30:36;55957.19;;;-142.21;100.00
5053;BME280;2545;50.892;5.740;2023-06-01T03:33:02;55972.88;;;-142.21;100.00
5053;BME280;2545;50.892;5.740;2023-06-01T03:35:27;55953.25;;;-142.21;100.00
5053;BME280;2545;50.892;5.740;2023-06-01T03:37:52;55974.84;;;-142.21;100.00
5053;BME280;2545;50.892;5.740;2023-06-01T03:40:18;55974.84;;;-142.21;100.00
5053;BME280;2545;50.892;5.740;2023-06-01T03:42:45;55984.63;;;-142.21;100.00
5053;BME280;2545;50.892;5.740;2023-06-01T03:45:12;55990.53;;;-142.21;100.00
5053;BME280;2545;50.892;5.740;2023-06-01T03:47:38;55967.00;;;-142.21;100.00
5053;BME280;2545;50.892;5.740;2023-06-01T03:50:04;55976.78;;;-142.21;100.00
5053;BME280;2545;50.892;5.740;2023-06-01T03:52:31;55990.53;;;-142.21;100.00
5053;BME280;2545;50.892;5.740;2023-06-01T03:54:58;55994.44;;;-142.21;100.00
5053;BME280;2545;50.892;5.740;2023-06-01T03:57:24;55988.56;;;-142.21;100.00
5053;BME280;2545;50.892;5.740;2023-06-01T03:59:50;55967.00;;;-142.21;100.00
5053;BME280;2545;50.892;5.740;2023-06-01T04:02:16;55998.38;;;-142.21;100.00
5053;BME280;2545;50.892;5.740;2023-06-01T04:04:43;55957.19;;;-142.21;100.00
5053;BME280;2545;50.892;5.740;2023-06-01T04:07:13;55959.16;;;-142.21;100.00
5053;BME280;2545;50.892;5.740;2023-06-01T04:09:47;56000.31;;;-142.21;100.00
5053;BME280;2545;50.892;5.740;2023-06-01T04:12:13;55976.78;;;-142.21;100.00
5053;BME280;2545;50.892;5.740;2023-06-01T04:14:40;55998.38;;;-142.21;100.00
5053;BME280;2545;50.892;5.740;2023-06-01T04:17:06;55970.91;;;-142.21;100.00
5053;BME280;2545;50.892;5.740;2023-06-01T04:19:32;55984.63;;;-142.21;100.00
5053;BME280;2545;50.892;5.740;2023-06-01T04:21:58;55988.56;;;-142.21;100.00
5053;BME280;2545;50.892;5.740;2023-06-01T04:24:24;55986.59;;;-142.21;100.00
5053;BME280;2545;50.892;5.740;2023-06-01T04:26:49;55980.72;;;-142.21;100.00
5053;BME280;2545;50.892;5.740;2023-06-01T04:29:17;56008.16;;;-142.21;100.00
5053;BME280;2545;50.892;5.740;2023-06-01T04:31:45;55963.06;;;-142.21;100.00
5053;BME280;2545;50.892;5.740;2023-06-01T04:34:10;56014.06;;;-142.21;100.00
5053;BME280;2545;50.892;5.740;2023-06-01T04:36:35;55947.38;;;-142.21;100.00
5053;BME280;2545;50.892;5.740;2023-06-01T04:39:07;55990.53;;;-142.21;100.00
5053;BME280;2545;50.892;5.740;2023-06-01T04:41:33;55978.75;;;-142.21;97.91
5053;BME280;2545;50.892;5.740;2023-06-01T04:44:00;55988.56;;;-142.21;96.70
5053;BME280;2545;50.892;5.740;2023-06-01T04:46:25;55947.38;;;-142.21;95.00
5053;BME280;2545;50.892;5.740;2023-06-01T04:48:54;55974.84;;;-142.21;94.19
5053;BME280;2545;50.892;5.740;2023-06-01T04:51:25;55959.16;;;-142.21;92.83
5053;BME280;2545;50.892;5.740;2023-06-01T04:53:52;55968.94;;;-142.21;91.54
5053;BME280;2545;50.892;5.740;2023-06-01T04:56:19;55963.06;;;-142.21;91.56
5053;BME280;2545;50.892;5.740;2023-06-01T04:58:46;55976.78;;;-142.21;90.53
5053;BME280;2545;50.892;5.740;2023-06-01T05:01:14;55951.31;;;-142.21;90.20
5053;BME280;2545;50.892;5.740;2023-06-01T05:03:41;55961.09;;;-142.21;89.79
5053;BME280;2545;50.892;5.740;2023-06-01T05:06:09;55965.03;;;-142.21;88.30
5053;BME280;2545;50.892;5.740;2023-06-01T05:08:36;55947.38;;;-142.21;88.27
5053;BME280;2545;50.892;5.740;2023-06-01T05:11:01;55980.72;;;-142.21;87.79
5053;BME280;2545;50.892;5.740;2023-06-01T05:13:26;55980.72;;;-142.21;86.65
5053;BME280;2545;50.892;5.740;2023-06-01T05:15:51;55941.50;;;-142.21;85.76
5053;BME280;2545;50.892;5.740;2023-06-01T05:18:17;55970.91;;;-142.21;86.14
5053;BME280;2545;50.892;5.740;2023-06-01T05:20:42;55968.94;;;-142.21;85.65
5053;BME280;2545;50.892;5.740;2023-06-01T05:23:07;55939.53;;;-142.21;85.44
5053;BME280;2545;50.892;5.740;2023-06-01T05:25:32;55963.06;;;-142.21;86.00
5053;BME280;2545;50.892;5.740;2023-06-01T05:27:58;55978.75;;;-142.21;85.86
5053;BME280;2545;50.892;5.740;2023-06-01T05:30:23;55955.22;;;-142.21;85.69
5053;BME280;2545;50.892;5.740;2023-06-01T05:32:48;55980.72;;;-142.21;85.36
5053;BME280;2545;50.892;5.740;2023-06-01T05:35:14;55931.69;;;-142.21;86.26
5053;BME280;2545;50.892;5.740;2023-06-01T05:37:39;55961.09;;;-142.21;85.53
5053;BME280;2545;50.892;5.740;2023-06-01T05:40:06;55982.69;;;-142.21;84.17
5053;BME280;2545;50.892;5.740;2023-06-01T05:42:33;55974.84;;;-142.21;83.34
5053;BME280;2545;50.892;5.740;2023-06-01T05:44:58;55976.78;;;-142.21;83.84
5053;BME280;2545;50.892;5.740;2023-06-01T05:47:23;55949.34;;;-142.21;83.19
5053;BME280;2545;50.892;5.740;2023-06-01T05:49:48;55959.16;;;-142.21;82.18
5053;BME280;2545;50.892;5.740;2023-06-01T05:52:14;55961.09;;;-142.21;81.61
5053;BME280;2545;50.892;5.740;2023-06-01T05:54:39;55967.00;;;-142.21;80.00
5053;BME280;2545;50.892;5.740;2023-06-01T05:57:05;55941.50;;;-142.21;79.09
5053;BME280;2545;50.892;5.740;2023-06-01T05:59:31;55945.41;;;-142.21;81.16
5053;BME280;2545;50.892;5.740;2023-06-01T06:01:56;55953.25;;;-142.21;81.56
5053;BME280;2545;50.892;5.740;2023-06-01T06:04:22;55941.50;;;-142.21;82.50
5053;BME280;2545;50.892;5.740;2023-06-01T06:06:47;55974.84;;;-142.21;82.57
5053;BME280;2545;50.892;5.740;2023-06-01T06:09:13;55976.78;;;-142.21;81.86
5053;BME280;2545;50.892;5.740;2023-06-01T06:11:39;55939.53;;;-142.21;82.14
5053;BME280;2545;50.892;5.740;2023-06-01T06:14:05;55968.94;;;-142.21;80.24
5053;BME280;2545;50.892;5.740;2023-06-01T06:16:30;55937.56;;;-142.21;79.23
5053;BME280;2545;50.892;5.740;2023-06-01T06:18:56;55939.53;;;-142.21;79.25
5053;BME280;2545;50.892;5.740;2023-06-01T06:21:21;55968.94;;;-142.21;79.00
5053;BME280;2545;50.892;5.740;2023-06-01T06:23:46;55959.16;;;-142.21;76.83
5053;BME280;2545;50.892;5.740;2023-06-01T06:26:13;55947.38;;;-142.21;77.14
5053;BME280;2545;50.892;5.740;2023-06-01T06:28:38;55955.22;;;-142.21;77.29
5053;BME280;2545;50.892;5.740;2023-06-01T06:31:03;55978.75;;;-142.21;77.49
5053;BME280;2545;50.892;5.740;2023-06-01T06:33:28;55951.31;;;-142.21;77.56
5053;BME280;2545;50.892;5.740;2023-06-01T06:35:54;55986.59;;;-142.21;76.11
5053;BME280;2545;50.892;5.740;2023-06-01T06:38:19;55968.94;;;-142.21;74.98
5053;BME280;2545;50.892;5.740;2023-06-01T06:40:44;55947.38;;;-142.21;72.79
5053;BME280;2545;50.892;5.740;2023-06-01T06:43:10;55978.75;;;-142.21;72.88
5053;BME280;2545;50.892;5.740;2023-06-01T06:45:35;55919.94;;;-142.21;71.94
5053;BME280;2545;50.892;5.740;2023-06-01T06:48:00;55967.00;;;-142.21;70.93
5053;BME280;2545;50.892;5.740;2023-06-01T06:50:26;55957.19;;;-142.21;70.16
5053;BME280;2545;50.892;5.740;2023-06-01T06:52:52;55947.38;;;-142.21;68.94
5053;BME280;2545;50.892;5.740;2023-06-01T06:55:18;55939.53;;;-142.21;67.94
5053;BME280;2545;50.892;5.740;2023-06-01T06:57:43;55953.25;;;-142.21;67.93
5053;BME280;2545;50.892;5.740;2023-06-01T07:00:09;55945.41;;;-142.21;68.05
5053;BME280;2545;50.892;5.740;2023-06-01T07:02:42;55951.31;;;-142.21;68.40
5053;BME280;2545;50.892;5.740;2023-06-01T07:05:09;55951.31;;;-142.21;68.75
5053;BME280;2545;50.892;5.740;2023-06-01T07:07:36;55978.75;;;-142.21;67.86
5053;BME280;2545;50.892;5.740;2023-06-01T07:10:01;55937.56;;;-142.21;68.58
5053;BME280;2545;50.892;5.740;2023-06-01T07:12:26;55949.34;;;-142.21;68.02
5053;BME280;2545;50.892;5.740;2023-06-01T07:14:52;55945.41;;;-142.21;67.05
5053;BME280;2545;50.892;5.740;2023-06-01T07:17:17;55959.16;;;-142.21;66.04
5053;BME280;2545;50.892;5.740;2023-06-01T07:19:42;55916.00;;;-142.21;65.70
5053;BME280;2545;50.892;5.740;2023-06-01T07:22:08;55951.31;;;-142.21;65.26
5053;BME280;2545;50.892;5.740;2023-06-01T07:24:33;55933.66;;;-142.21;66.62
5053;BME280;2545;50.892;5.740;2023-06-01T07:26:58;55933.66;;;-142.21;66.04
5053;BME280;2545;50.892;5.740;2023-06-01T07:29:24;55923.84;;;-142.21;65.79
5053;BME280;2545;50.892;5.740;2023-06-01T07:31:50;55923.84;;;-142.21;64.50
5053;BME280;2545;50.892;5.740;2023-06-01T07:34:17;55933.66;;;-142.21;63.70
5053;BME280;2545;50.892;5.740;2023-06-01T07:36:42;55963.06;;;-142.21;63.05
5053;BME280;2545;50.892;5.740;2023-06-01T07:39:10;55921.91;;;-142.21;63.73
5053;BME280;2545;50.892;5.740;2023-06-01T07:41:36;55961.09;;;-142.21;62.53
5053;BME280;2545;50.892;5.740;2023-06-01T07:44:02;55921.91;;;-142.21;61.98
5053;BME280;2545;50.892;5.740;2023-06-01T07:46:27;55923.84;;;-142.21;61.43
5053;BME280;2545;50.892;5.740;2023-06-01T07:48:53;55919.94;;;-142.21;60.27
5053;BME280;2545;50.892;5.740;2023-06-01T07:51:18;55955.22;;;-142.21;59.61
5053;BME280;2545;50.892;5.740;2023-06-01T07:53:43;55927.78;;;-142.21;60.50
5053;BME280;2545;50.892;5.740;2023-06-01T07:56:09;55925.81;;;-142.21;58.78
5053;BME280;2545;50.892;5.740;2023-06-01T07:58:34;55917.97;;;-142.21;58.83
5053;BME280;2545;50.892;5.740;2023-06-01T08:01:00;55912.09;;;-142.21;57.12
5053;BME280;2545;50.892;5.740;2023-06-01T08:03:26;55888.56;;;-142.21;57.32
5053;BME280;2545;50.892;5.740;2023-06-01T08:05:52;55921.91;;;-142.21;56.13
5053;BME280;2545;50.892;5.740;2023-06-01T08:08:25;55921.91;;;-142.21;55.57
5053;BME280;2545;50.892;5.740;2023-06-01T08:10:50;55906.22;;;-142.21;54.69
5053;BME280;2545;50.892;5.740;2023-06-01T08:13:17;55953.25;;;-142.21;53.40
5053;BME280;2545;50.892;5.740;2023-06-01T08:15:44;55923.84;;;-142.21;53.83
5053;BME280;2545;50.892;5.740;2023-06-01T08:18:15;55898.38;;;-142.21;53.81
5053;BME280;2545;50.892;5.740;2023-06-01T08:20:40;55872.88;;;-142.21;53.64
5053;BME280;2545;50.892;5.740;2023-06-01T08:23:07;55931.69;;;-142.21;52.78
5053;BME280;2545;50.892;5.740;2023-06-01T08:25:32;55916.00;;;-142.21;51.91
5053;BME280;2545;50.892;5.740;2023-06-01T08:27:57;55937.56;;;-142.21;53.00
5053;BME280;2545;50.892;5.740;2023-06-01T08:30:25;55917.97;;;-142.21;52.59
5053;BME280;2545;50.892;5.740;2023-06-01T08:32:50;55880.72;;;-142.21;53.94
5053;BME280;2545;50.892;5.740;2023-06-01T08:35:17;55904.25;;;-142.21;52.65
5053;BME280;2545;50.892;5.740;2023-06-01T08:37:43;55896.41;;;-142.21;52.84
5053;BME280;2545;50.892;5.740;2023-06-01T08:40:10;55951.31;;;-142.21;55.29
5053;BME280;2545;50.892;5.740;2023-06-01T08:45:11;55923.84;;;-142.21;58.09
5053;BME280;2545;50.892;5.740;2023-06-01T08:47:37;55947.38;;;-142.21;59.06
5053;BME280;2545;50.892;5.740;2023-06-01T08:50:04;55941.50;;;-142.21;58.05
5053;BME280;2545;50.892;5.740;2023-06-01T08:52:31;55910.13;;;-142.21;56.11
5053;BME280;2545;50.892;5.740;2023-06-01T08:54:59;55908.16;;;-142.21;55.80
5053;BME280;2545;50.892;5.740;2023-06-01T08:57:25;55919.94;;;-142.21;57.30
5053;BME280;2545;50.892;5.740;2023-06-01T08:59:50;55923.84;;;-142.21;56.66
5053;BME280;2545;50.892;5.740;2023-06-01T09:02:16;55931.69;;;-142.21;57.31
5053;BME280;2545;50.892;5.740;2023-06-01T09:04:42;55947.38;;;-142.21;56.73
5053;BME280;2545;50.892;5.740;2023-06-01T09:07:13;55917.97;;;-142.21;55.98
5053;BME280;2545;50.892;5.740;2023-06-01T09:09:38;55923.84;;;-142.21;54.63
5053;BME280;2545;50.892;5.740;2023-06-01T09:14:46;55916.00;;;-142.21;53.37
5053;BME280;2545;50.892;5.740;2023-06-01T09:17:20;55898.38;;;-142.21;54.17
5053;BME280;2545;50.892;5.740;2023-06-01T09:19:47;55900.31;;;-142.21;52.79
5053;BME280;2545;50.892;5.740;2023-06-01T09:22:13;55912.09;;;-142.21;55.75
5053;BME280;2545;50.892;5.740;2023-06-01T09:24:39;55919.94;;;-142.21;53.59
5053;BME280;2545;50.892;5.740;2023-06-01T09:27:06;55919.94;;;-142.21;54.05
5053;BME280;2545;50.892;5.740;2023-06-01T09:29:32;55910.13;;;-142.21;52.84
5053;BME280;2545;50.892;5.740;2023-06-01T09:31:59;55917.97;;;-142.21;53.66
5053;BME280;2545;50.892;5.740;2023-06-01T09:34:25;55908.16;;;-142.21;56.07
5053;BME280;2545;50.892;5.740;2023-06-01T09:36:53;55872.88;;;-142.21;53.12
5053;BME280;2545;50.892;5.740;2023-06-01T09:39:23;55931.69;;;-142.21;50.74
5053;BME280;2545;50.892;5.740;2023-06-01T09:41:55;55929.75;;;-142.21;53.44
5053;BME280;2545;50.892;5.740;2023-06-01T09:44:31;55900.31;;;-142.21;50.61
5053;BME280;2545;50.892;5.740;2023-06-01T09:47:02;55914.06;;;-142.21;49.72
5053;BME280;2545;50.892;5.740;2023-06-01T09:49:36;55902.28;;;-142.21;50.47
5053;BME280;2545;50.892;5.740;2023-06-01T09:54:32;55888.56;;;-142.21;48.47
5053;BME280;2545;50.892;5.740;2023-06-01T09:56:59;55914.06;;;-142.21;48.79
5053;BME280;2545;50.892;5.740;2023-06-01T09:59:26;55912.09;;;-142.21;48.13
5053;BME280;2545;50.892;5.740;2023-06-01T10:01:55;55904.25;;;-142.21;48.83
5053;BME280;2545;50.892;5.740;2023-06-01T10:04:22;55882.69;;;-142.21;48.07
5053;BME280;2545;50.892;5.740;2023-06-01T10:06:49;55904.25;;;-142.21;47.57
5053;BME280;2545;50.892;5.740;2023-06-01T10:09:18;55919.94;;;-142.21;47.34
5053;BME280;2545;50.892;5.740;2023-06-01T10:11:49;55919.94;;;-142.21;47.35
5053;BME280;2545;50.892;5.740;2023-06-01T10:14:18;55900.31;;;-142.21;47.11
5053;BME280;2545;50.892;5.740;2023-06-01T10:16:44;55892.47;;;-142.21;45.60
5053;BME280;2545;50.892;5.740;2023-06-01T10:19:11;55872.88;;;-142.21;42.62
5053;BME280;2545;50.892;5.740;2023-06-01T10:21:36;55904.25;;;-142.21;42.31
5053;BME280;2545;50.892;5.740;2023-06-01T10:24:06;55888.56;;;-142.21;40.57
5053;BME280;2545;50.892;5.740;2023-06-01T10:26:41;55874.84;;;-142.21;39.80
5053;BME280;2545;50.892;5.740;2023-06-01T10:29:07;55861.09;;;-142.21;38.71
5053;BME280;2545;50.892;5.740;2023-06-01T10:31:37;55829.75;;;-142.21;37.86
5053;BME280;2545;50.892;5.740;2023-06-01T10:34:04;55859.16;;;-142.21;35.68
5053;BME280;2545;50.892;5.740;2023-06-01T10:39:31;55810.13;;;-142.21;34.77
5053;BME280;2545;50.892;5.740;2023-06-01T10:41:58;55845.44;;;-142.21;34.89
5053;BME280;2545;50.892;5.740;2023-06-01T10:57:32;55800.31;;;-142.21;30.36
5053;BME280;2545;50.892;5.740;2023-06-01T11:00:13;55735.63;;;-142.21;29.48
5053;BME280;2545;50.892;5.740;2023-06-01T11:02:59;55741.50;;;-142.21;29.36
5053;BME280;2545;50.892;5.740;2023-06-01T11:05:35;55767.00;;;-142.21;29.79
5053;BME280;2545;50.892;5.740;2023-06-01T11:08:04;55767.00;;;-142.21;30.82
5053;BME280;2545;50.892;5.740;2023-06-01T11:21:15;55794.44;;;-142.21;29.82
5053;BME280;2545;50.892;5.740;2023-06-01T11:23:42;55725.81;;;-142.21;29.55
5053;BME280;2545;50.892;5.740;2023-06-01T11:26:08;55735.63;;;-142.21;29.27
5053;BME280;2545;50.892;5.740;2023-06-01T11:28:34;55749.34;;;-142.21;28.97
5053;BME280;2545;50.892;5.740;2023-06-01T11:31:01;55682.69;;;-142.21;28.54
5053;BME280;2545;50.892;5.740;2023-06-01T11:33:29;55788.56;;;-142.21;29.27
5053;BME280;2545;50.892;5.740;2023-06-01T11:36:01;55700.34;;;-142.21;29.32
5053;BME280;2545;50.892;5.740;2023-06-01T11:38:40;55725.81;;;-142.21;28.91
5053;BME280;2545;50.892;5.740;2023-06-01T11:41:06;55676.81;;;-142.21;28.15
5053;BME280;2545;50.892;5.740;2023-06-01T11:43:32;55645.44;;;-142.21;27.48
5053;BME280;2545;50.892;5.740;2023-06-01T11:46:08;55688.56;;;-142.21;27.56
5053;BME280;2545;50.892;5.740;2023-06-01T11:48:35;55719.94;;;-142.21;27.67
5053;BME280;2545;50.892;5.740;2023-06-01T11:51:01;55721.91;;;-142.21;27.64
5053;BME280;2545;50.892;5.740;2023-06-01T11:53:28;55688.56;;;-142.21;27.30
5053;BME280;2545;50.892;5.740;2023-06-01T11:55:55;55651.31;;;-142.21;26.85
5053;BME280;2545;50.892;5.740;2023-06-01T11:58:22;55674.84;;;-142.21;26.76
5053;BME280;2545;50.892;5.740;2023-06-01T12:00:47;55712.09;;;-142.21;27.60
5053;BME280;2545;50.892;5.740;2023-06-01T12:03:13;55661.13;;;-142.21;26.44
5053;BME280;2545;50.892;5.740;2023-06-01T12:05:39;55704.25;;;-142.21;26.91
5053;BME280;2545;50.892;5.740;2023-06-01T12:08:12;55684.66;;;-142.21;27.49
5053;BME280;2545;50.892;5.740;2023-06-01T12:10:38;55719.94;;;-142.21;27.97
5053;BME280;2545;50.892;5.740;2023-06-01T12:13:04;55674.84;;;-142.21;27.29
5053;BME280;2545;50.892;5.740;2023-06-01T12:15:30;55708.19;;;-142.21;27.01
5053;BME280;2545;50.892;5.740;2023-06-01T12:17:55;55676.81;;;-142.21;27.13
5053;BME280;2545;50.892;5.740;2023-06-01T12:22:50;55698.38;;;-142.21;26.62
5053;BME280;2545;50.892;5.740;2023-06-01T12:25:16;55700.34;;;-142.21;27.25
5053;BME280;2545;50.892;5.740;2023-06-01T12:27:42;55745.44;;;-142.21;27.62
5053;BME280;2545;50.892;5.740;2023-06-01T12:30:20;55741.50;;;-142.21;27.58
5053;BME280;2545;50.892;5.740;2023-06-01T12:32:45;55733.66;;;-142.21;27.15
5053;BME280;2545;50.892;5.740;2023-06-01T12:35:10;55659.16;;;-142.21;26.64
5053;BME280;2545;50.892;5.740;2023-06-01T12:37:35;55647.41;;;-142.21;25.32
5053;BME280;2545;50.892;5.740;2023-06-01T12:40:01;55680.72;;;-142.21;25.91
5053;BME280;2545;50.892;5.740;2023-06-01T12:42:37;55680.72;;;-142.21;25.41
5053;BME280;2545;50.892;5.740;2023-06-01T12:45:04;55706.22;;;-142.21;26.53
5053;BME280;2545;50.892;5.740;2023-06-01T12:47:40;55708.19;;;-142.21;25.50
5053;BME280;2545;50.892;5.740;2023-06-01T12:50:09;55655.25;;;-142.21;24.42
5053;BME280;2545;50.892;5.740;2023-06-01T12:52:35;55684.66;;;-142.21;25.21
5053;BME280;2545;50.892;5.740;2023-06-01T12:55:00;55659.16;;;-142.21;24.93
5053;BME280;2545;50.892;5.740;2023-06-01T12:57:28;55637.59;;;-142.21;25.08
5053;BME280;2545;50.892;5.740;2023-06-01T12:59:53;55643.47;;;-142.21;24.54
5053;BME280;2545;50.892;5.740;2023-06-01T13:02:19;55606.22;;;-142.21;24.45
5053;BME280;2545;50.892;5.740;2023-06-01T13:04:44;55627.78;;;-142.21;24.06
5053;BME280;2545;50.892;5.740;2023-06-01T13:07:10;55659.16;;;-142.21;25.06
5053;BME280;2545;50.892;5.740;2023-06-01T13:09:35;55680.72;;;-142.21;25.82
5053;BME280;2545;50.892;5.740;2023-06-01T13:12:01;55672.88;;;-142.21;25.95
5053;BME280;2545;50.892;5.740;2023-06-01T13:14:28;55782.69;;;-142.21;25.32
5053;BME280;2545;50.892;5.740;2023-06-01T13:16:55;55702.28;;;-142.21;26.25
5053;BME280;2545;50.892;5.740;2023-06-01T13:19:20;55751.31;;;-142.21;26.89
5053;BME280;2545;50.892;5.740;2023-06-01T13:21:46;55725.81;;;-142.21;26.67
5053;BME280;2545;50.892;5.740;2023-06-01T13:24:11;55745.44;;;-142.21;26.07
5053;BME280;2545;50.892;5.740;2023-06-01T13:26:37;55768.97;;;-142.21;26.52
5053;BME280;2545;50.892;5.740;2023-06-01T13:29:02;55755.22;;;-142.21;27.16
5053;BME280;2545;50.892;5.740;2023-06-01T13:31:31;55806.22;;;-142.21;27.67
5053;BME280;2545;50.892;5.740;2023-06-01T13:33:58;55757.19;;;-142.21;29.32
5053;BME280;2545;50.892;5.740;2023-06-01T13:36:23;55810.13;;;-142.21;28.04
5053;BME280;2545;50.892;5.740;2023-06-01T13:38:49;55770.91;;;-142.21;28.72
5053;BME280;2545;50.892;5.740;2023-06-01T13:41:14;55751.31;;;-142.21;27.03
5053;BME280;2545;50.892;5.740;2023-06-01T13:43:40;55780.72;;;-142.21;26.93
5053;BME280;2545;50.892;5.740;2023-06-01T13:46:05;55767.00;;;-142.21;27.35